Arklow Raider — EIXS — position and weather

sailwx.info

Track history (hours):
 
Tides and Currents Weather Stations Pressure Air Temp Water Temp Dewpoint Dewpoint Depression Visibility Wind Speed Wind Dir Waves Ship Positions

Arklow Raider

Last reported at 2015-Jul-02 01:32 UTC. Time now 2015-Jul-03 10:38 UTC.
Position N 54°50' W 001°20'.

Length 90 m; draft 3.4 m.

Type: Ship. MMSI: 250001268.

Date/timePositionNaut miles runAvg speedWind from/ knotsBaromVisibWave heightAir tempDewpointWater temp
2015-Jul-02 01:32N 54°50' W 001°20'2 0.7
2015-Jul-01 23:05N 54°50' W 001°17'0 0.0
2015-Jul-01 22:32N 54°50' W 001°17'0 0.0
2015-Jul-01 21:29N 54°50' W 001°17'0 0.0
2015-Jul-01 20:32N 54°50' W 001°17'0 0.0
2015-Jul-01 19:32N 54°50' W 001°17'0 0.0
2015-Jul-01 18:32N 54°50' W 001°17'0 0.0
2015-Jul-01 17:32N 54°50' W 001°17'0 0.0
2015-Jul-01 16:29N 54°50' W 001°17'0 0.1
2015-Jul-01 15:23N 54°50' W 001°17'2 1.9
2015-Jul-01 14:33N 54°51' W 001°19'2 1.7
2015-Jul-01 13:33N 54°49' W 001°17'6 5.9
2015-Jul-01 12:33N 54°47' W 001°08'7 6.5
2015-Jul-01 11:33N 54°43' W 000°59'7 7.4
2015-Jul-01 10:33N 54°38' W 000°49'9 9.2
2015-Jul-01 09:32N 54°32' W 000°36'9 9.7
2015-Jul-01 08:33N 54°25' W 000°25'1110.7
2015-Jul-01 07:33N 54°17' W 000°14'1313.4
2015-Jul-01 06:33N 54°06' E 000°00'1313.0
2015-Jul-01 05:33N 53°56' E 000°13'1212.2
2015-Jul-01 04:33N 53°46' E 000°26'1111.3
2015-Jul-01 03:32N 53°37' E 000°37'1111.6
2015-Jul-01 02:33N 53°29' E 000°51'1312.7
2015-Jul-01 01:33N 53°19' E 001°05'1414.4
2015-Jul-01 00:33N 53°08' E 001°20'1515.0
2015-Jun-30 23:33N 52°57' E 001°36'1414.4
2015-Jun-30 22:33N 52°45' E 001°50'1212.0
2015-Jun-30 21:33N 52°33' E 001°53'1211.7
2015-Jun-30 20:33N 52°22' E 001°50'1111.1
2015-Jun-30 19:33N 52°11' E 001°45'1110.7
2015-Jun-30 18:33N 52°02' E 001°37'1010.4
2015-Jun-30 17:33N 51°56' E 001°24'8 7.8
2015-Jun-30 16:33N 51°60' E 001°13'3 3.0
2015-Jun-30 15:30N 52°02' E 001°09'0 0.0
2015-Jun-30 14:33N 52°02' E 001°09'0 0.0
2015-Jun-30 13:24N 52°02' E 001°09'0 0.0
2015-Jun-30 12:30N 52°02' E 001°09'0 0.0
2015-Jun-30 11:33N 52°02' E 001°09'0 0.0
2015-Jun-30 10:30N 52°02' E 001°09'0 0.0
2015-Jun-30 09:33N 52°02' E 001°09'0 0.0
2015-Jun-30 08:33N 52°02' E 001°09'0 0.0
2015-Jun-30 07:33N 52°02' E 001°09'0 0.0
2015-Jun-30 06:33N 52°02' E 001°09'0 0.0
2015-Jun-30 05:30N 52°02' E 001°09'0 0.0
2015-Jun-30 04:33N 52°02' E 001°09'0 0.0
2015-Jun-30 03:33N 52°02' E 001°09'0 0.0
2015-Jun-30 02:33N 52°02' E 001°09'0 0.0
2015-Jun-30 01:30N 52°02' E 001°09'0 0.0
2015-Jun-30 00:33N 52°02' E 001°09'0 0.0
2015-Jun-29 23:33N 52°02' E 001°09'0 0.0
2015-Jun-29 22:33N 52°02' E 001°09'0 0.0
2015-Jun-29 21:33N 52°02' E 001°09'0 0.0
2015-Jun-29 20:33N 52°02' E 001°09'0 0.0
2015-Jun-29 19:33N 52°02' E 001°09'0 0.0
2015-Jun-29 18:33N 52°02' E 001°09'0 0.0
2015-Jun-29 17:33N 52°02' E 001°09'0 0.0
2015-Jun-29 16:33N 52°02' E 001°09'0 0.0
2015-Jun-29 15:33N 52°02' E 001°09'0 0.0
2015-Jun-29 14:33N 52°02' E 001°09'0 0.0
2015-Jun-29 13:33N 52°02' E 001°09'0 0.0
2015-Jun-29 12:33N 52°02' E 001°09'0 0.0
2015-Jun-29 11:33N 52°02' E 001°09'0 0.0
2015-Jun-29 10:33N 52°02' E 001°09'0 0.0
2015-Jun-29 09:33N 52°02' E 001°09'0 0.0
2015-Jun-29 08:33N 52°02' E 001°09'0 0.0
2015-Jun-29 07:33N 52°02' E 001°09'0 0.0
2015-Jun-29 06:33N 52°02' E 001°09'0 0.0
2015-Jun-29 05:33N 52°02' E 001°09'0 0.0
2015-Jun-29 04:33N 52°02' E 001°09'0 0.0
2015-Jun-29 03:33N 52°02' E 001°09'0 0.0
2015-Jun-29 02:33N 52°02' E 001°09'0 0.0
2015-Jun-29 01:33N 52°02' E 001°09'0 0.0
2015-Jun-29 00:33N 52°02' E 001°09'0 0.0
2015-Jun-28 23:33N 52°02' E 001°09'0 0.0
2015-Jun-28 22:33N 52°02' E 001°09'0 0.0
2015-Jun-28 21:33N 52°02' E 001°09'0 0.0
2015-Jun-28 20:33N 52°02' E 001°09'0 0.0
2015-Jun-28 19:33N 52°02' E 001°09'0 0.0
2015-Jun-28 18:33N 52°02' E 001°09'0 0.0
2015-Jun-28 17:33N 52°02' E 001°09'0 0.0
2015-Jun-28 16:33N 52°02' E 001°09'0 0.0
2015-Jun-28 15:33N 52°02' E 001°09'0 0.0
2015-Jun-28 14:33N 52°02' E 001°09'0 0.0
2015-Jun-28 13:33N 52°02' E 001°09'0 0.0
2015-Jun-28 12:33N 52°02' E 001°09'0 0.0
2015-Jun-28 11:33N 52°02' E 001°09'3 2.7
2015-Jun-28 10:33N 52°00' E 001°13'7 7.4
2015-Jun-28 09:33N 51°56' E 001°22'7 7.3
2015-Jun-28 08:34N 51°55' E 001°34'10 9.6
2015-Jun-28 07:33N 51°50' E 001°47'1110.6
2015-Jun-28 06:34N 51°39' E 001°48'2010.0
2015-Jun-28 04:33N 51°20' E 001°41'9 9.5
2015-Jun-28 03:33N 51°10' E 001°40'9 8.8
2015-Jun-28 02:33N 51°02' E 001°34'1110.5
2015-Jun-28 01:33N 50°53' E 001°25'1010.4
2015-Jun-28 00:33N 50°43' E 001°20'1110.5
2015-Jun-27 23:33N 50°36' E 001°07'1010.5
2015-Jun-27 22:33N 50°30' E 000°54'2811.0
2015-Jun-27 20:03N 50°23' E 000°12'611.6
2015-Jun-27 19:33N 50°22' E 000°03'1211.9
2015-Jun-27 18:31N 50°21' W 000°16'3913.0
2015-Jun-27 15:33N 50°23' W 001°16'2712.5
2015-Jun-27 13:23N 50°22' W 001°59'2010.9
2015-Jun-27 11:33N 50°18' W 002°29'1010.1
2015-Jun-27 10:33N 50°15' W 002°45'1010.4
2015-Jun-27 09:33N 50°13' W 003°00'1110.7
2015-Jun-27 08:33N 50°11' W 003°17'1110.7
2015-Jun-27 07:33N 50°09' W 003°33'125 6.4
2015-Jun-26 12:13N 51°52' W 005°27'13211.3
2015-Jun-26 00:31N 54°03' W 005°18'1111.5
2015-Jun-25 23:33N 54°14' W 005°18'1111.0
2015-Jun-25 22:33N 54°25' W 005°19'1110.6
2015-Jun-25 21:33N 54°35' W 005°24'9 9.1
2015-Jun-25 20:33N 54°42' W 005°34'1110.5
2015-Jun-25 19:33N 54°39' W 005°52'2 0.1
2015-Jun-24 14:06N 54°37' W 005°54'0 0.0
2015-Jun-24 06:16N 54°37' W 005°54'0 0.0
2015-Jun-24 05:16N 54°37' W 005°54'0 0.0
2015-Jun-24 04:16N 54°37' W 005°54'0 0.0
2015-Jun-24 03:28N 54°37' W 005°54'0 0.0
2015-Jun-24 02:28N 54°37' W 005°54'0 0.0
2015-Jun-24 00:10N 54°37' W 005°54'4 0.1
2015-Jun-22 18:31N 54°40' W 005°51'8 8.1
2015-Jun-22 17:33N 54°43' W 005°39'5 5.1
2015-Jun-22 16:33N 54°43' W 005°30'5 5.1
2015-Jun-22 15:33N 54°39' W 005°26'5 5.1
2015-Jun-22 14:33N 54°34' W 005°23'5 5.1
2015-Jun-22 13:33N 54°29' W 005°20'5 5.1
2015-Jun-22 12:33N 54°24' W 005°18'6 5.5
2015-Jun-22 11:33N 54°19' W 005°19'7 6.3
2015-Jun-22 10:32N 54°12' W 005°19'  
Track history (hours):
 
Tides and Currents Weather Stations Pressure Air Temp Water Temp Dewpoint Dewpoint Depression Visibility Wind Speed Wind Dir Waves Ship Positions

Arklow Raider

Last reported at 2015-Jul-02 01:32 UTC. Time now 2015-Jul-03 10:38 UTC.
Position N 54°50' W 001°20'.

Length 90 m; draft 3.4 m.

Type: Ship. MMSI: 250001268.

Date/timePositionNaut miles runAvg speedWind from/ knotsBaromVisibWave heightAir tempDewpointWater temp
2015-Jul-02 01:32N 54°50' W 001°20'2 0.7
2015-Jul-01 23:05N 54°50' W 001°17'0 0.0
2015-Jul-01 22:32N 54°50' W 001°17'0 0.0
2015-Jul-01 21:29N 54°50' W 001°17'0 0.0
2015-Jul-01 20:32N 54°50' W 001°17'0 0.0
2015-Jul-01 19:32N 54°50' W 001°17'0 0.0
2015-Jul-01 18:32N 54°50' W 001°17'0 0.0
2015-Jul-01 17:32N 54°50' W 001°17'0 0.0
2015-Jul-01 16:29N 54°50' W 001°17'0 0.1
2015-Jul-01 15:23N 54°50' W 001°17'2 1.9
2015-Jul-01 14:33N 54°51' W 001°19'2 1.7
2015-Jul-01 13:33N 54°49' W 001°17'6 5.9
2015-Jul-01 12:33N 54°47' W 001°08'7 6.5
2015-Jul-01 11:33N 54°43' W 000°59'7 7.4
2015-Jul-01 10:33N 54°38' W 000°49'9 9.2
2015-Jul-01 09:32N 54°32' W 000°36'9 9.7
2015-Jul-01 08:33N 54°25' W 000°25'1110.7
2015-Jul-01 07:33N 54°17' W 000°14'1313.4
2015-Jul-01 06:33N 54°06' E 000°00'1313.0
2015-Jul-01 05:33N 53°56' E 000°13'1212.2
2015-Jul-01 04:33N 53°46' E 000°26'1111.3
2015-Jul-01 03:32N 53°37' E 000°37'1111.6
2015-Jul-01 02:33N 53°29' E 000°51'1312.7
2015-Jul-01 01:33N 53°19' E 001°05'1414.4
2015-Jul-01 00:33N 53°08' E 001°20'1515.0
2015-Jun-30 23:33N 52°57' E 001°36'1414.4
2015-Jun-30 22:33N 52°45' E 001°50'1212.0
2015-Jun-30 21:33N 52°33' E 001°53'1211.7
2015-Jun-30 20:33N 52°22' E 001°50'1111.1
2015-Jun-30 19:33N 52°11' E 001°45'1110.7
2015-Jun-30 18:33N 52°02' E 001°37'1010.4
2015-Jun-30 17:33N 51°56' E 001°24'8 7.8
2015-Jun-30 16:33N 51°60' E 001°13'3 3.0
2015-Jun-30 15:30N 52°02' E 001°09'0 0.0
2015-Jun-30 14:33N 52°02' E 001°09'0 0.0
2015-Jun-30 13:24N 52°02' E 001°09'0 0.0
2015-Jun-30 12:30N 52°02' E 001°09'0 0.0
2015-Jun-30 11:33N 52°02' E 001°09'0 0.0
2015-Jun-30 10:30N 52°02' E 001°09'0 0.0
2015-Jun-30 09:33N 52°02' E 001°09'0 0.0
2015-Jun-30 08:33N 52°02' E 001°09'0 0.0
2015-Jun-30 07:33N 52°02' E 001°09'0 0.0
2015-Jun-30 06:33N 52°02' E 001°09'0 0.0
2015-Jun-30 05:30N 52°02' E 001°09'0 0.0
2015-Jun-30 04:33N 52°02' E 001°09'0 0.0
2015-Jun-30 03:33N 52°02' E 001°09'0 0.0
2015-Jun-30 02:33N 52°02' E 001°09'0 0.0
2015-Jun-30 01:30N 52°02' E 001°09'0 0.0
2015-Jun-30 00:33N 52°02' E 001°09'0 0.0
2015-Jun-29 23:33N 52°02' E 001°09'0 0.0
2015-Jun-29 22:33N 52°02' E 001°09'0 0.0
2015-Jun-29 21:33N 52°02' E 001°09'0 0.0
2015-Jun-29 20:33N 52°02' E 001°09'0 0.0
2015-Jun-29 19:33N 52°02' E 001°09'0 0.0
2015-Jun-29 18:33N 52°02' E 001°09'0 0.0
2015-Jun-29 17:33N 52°02' E 001°09'0 0.0
2015-Jun-29 16:33N 52°02' E 001°09'0 0.0
2015-Jun-29 15:33N 52°02' E 001°09'0 0.0
2015-Jun-29 14:33N 52°02' E 001°09'0 0.0
2015-Jun-29 13:33N 52°02' E 001°09'0 0.0
2015-Jun-29 12:33N 52°02' E 001°09'0 0.0
2015-Jun-29 11:33N 52°02' E 001°09'0 0.0
2015-Jun-29 10:33N 52°02' E 001°09'0 0.0
2015-Jun-29 09:33N 52°02' E 001°09'0 0.0
2015-Jun-29 08:33N 52°02' E 001°09'0 0.0
2015-Jun-29 07:33N 52°02' E 001°09'0 0.0
2015-Jun-29 06:33N 52°02' E 001°09'0 0.0
2015-Jun-29 05:33N 52°02' E 001°09'0 0.0
2015-Jun-29 04:33N 52°02' E 001°09'0 0.0
2015-Jun-29 03:33N 52°02' E 001°09'0 0.0
2015-Jun-29 02:33N 52°02' E 001°09'0 0.0
2015-Jun-29 01:33N 52°02' E 001°09'0 0.0
2015-Jun-29 00:33N 52°02' E 001°09'0 0.0
2015-Jun-28 23:33N 52°02' E 001°09'0 0.0
2015-Jun-28 22:33N 52°02' E 001°09'0 0.0
2015-Jun-28 21:33N 52°02' E 001°09'0 0.0
2015-Jun-28 20:33N 52°02' E 001°09'0 0.0
2015-Jun-28 19:33N 52°02' E 001°09'0 0.0
2015-Jun-28 18:33N 52°02' E 001°09'0 0.0
2015-Jun-28 17:33N 52°02' E 001°09'0 0.0
2015-Jun-28 16:33N 52°02' E 001°09'0 0.0
2015-Jun-28 15:33N 52°02' E 001°09'0 0.0
2015-Jun-28 14:33N 52°02' E 001°09'0 0.0
2015-Jun-28 13:33N 52°02' E 001°09'0 0.0
2015-Jun-28 12:33N 52°02' E 001°09'0 0.0
2015-Jun-28 11:33N 52°02' E 001°09'3 2.7
2015-Jun-28 10:33N 52°00' E 001°13'7 7.4
2015-Jun-28 09:33N 51°56' E 001°22'7 7.3
2015-Jun-28 08:34N 51°55' E 001°34'10 9.6
2015-Jun-28 07:33N 51°50' E 001°47'1110.6
2015-Jun-28 06:34N 51°39' E 001°48'2010.0
2015-Jun-28 04:33N 51°20' E 001°41'9 9.5
2015-Jun-28 03:33N 51°10' E 001°40'9 8.8
2015-Jun-28 02:33N 51°02' E 001°34'1110.5
2015-Jun-28 01:33N 50°53' E 001°25'1010.4
2015-Jun-28 00:33N 50°43' E 001°20'1110.5
2015-Jun-27 23:33N 50°36' E 001°07'1010.5
2015-Jun-27 22:33N 50°30' E 000°54'2811.0
2015-Jun-27 20:03N 50°23' E 000°12'611.6
2015-Jun-27 19:33N 50°22' E 000°03'1211.9
2015-Jun-27 18:31N 50°21' W 000°16'3913.0
2015-Jun-27 15:33N 50°23' W 001°16'2712.5
2015-Jun-27 13:23N 50°22' W 001°59'2010.9
2015-Jun-27 11:33N 50°18' W 002°29'1010.1
2015-Jun-27 10:33N 50°15' W 002°45'1010.4
2015-Jun-27 09:33N 50°13' W 003°00'1110.7
2015-Jun-27 08:33N 50°11' W 003°17'1110.7
2015-Jun-27 07:33N 50°09' W 003°33'125 6.4
2015-Jun-26 12:13N 51°52' W 005°27'13211.3
2015-Jun-26 00:31N 54°03' W 005°18'1111.5
2015-Jun-25 23:33N 54°14' W 005°18'1111.0
2015-Jun-25 22:33N 54°25' W 005°19'1110.6
2015-Jun-25 21:33N 54°35' W 005°24'9 9.1
2015-Jun-25 20:33N 54°42' W 005°34'1110.5
2015-Jun-25 19:33N 54°39' W 005°52'2 0.1
2015-Jun-24 14:06N 54°37' W 005°54'0 0.0
2015-Jun-24 06:16N 54°37' W 005°54'0 0.0
2015-Jun-24 05:16N 54°37' W 005°54'0 0.0
2015-Jun-24 04:16N 54°37' W 005°54'0 0.0
2015-Jun-24 03:28N 54°37' W 005°54'0 0.0
2015-Jun-24 02:28N 54°37' W 005°54'0 0.0
2015-Jun-24 00:10N 54°37' W 005°54'4 0.1
2015-Jun-22 18:31N 54°40' W 005°51'8 8.1
2015-Jun-22 17:33N 54°43' W 005°39'5 5.1
2015-Jun-22 16:33N 54°43' W 005°30'5 5.1
2015-Jun-22 15:33N 54°39' W 005°26'5 5.1
2015-Jun-22 14:33N 54°34' W 005°23'5 5.1
2015-Jun-22 13:33N 54°29' W 005°20'5 5.1
2015-Jun-22 12:33N 54°24' W 005°18'6 5.5
2015-Jun-22 11:33N 54°19' W 005°19'7 6.3
2015-Jun-22 10:32N 54°12' W 005°19'  

Dump ship's entire track history